Time;durP1;ratioP1;P1;durP2;ratioP2;P2;SDS_P1;SDS_P2;PMS_P1;PMS_P2;Temp;Humidity;BMP_temperature;BMP_pressure;BME280_temperature;BME280_humidity;BME280_pressure;Samples;Min_cycle;Max_cycle;Signal;HPM_P1;HPM_P2
2022/11/08 00:03:45;;;;;;;10.95;3.20;;;12.40;99.90;;;;;;4977447;28;20069;-85
2022/11/08 00:14:23;;;;;;;18.52;3.80;;;12.40;99.90;;;;;;4982971;28;20140;-85
2022/11/08 00:16:49;;;;;;;16.30;3.53;;;12.40;99.90;;;;;;4974853;28;20121;-85
2022/11/08 00:19:15;;;;;;;14.50;3.33;;;12.50;99.90;;;;;;4972307;28;20046;-85
2022/11/08 00:21:41;;;;;;;13.38;3.40;;;12.50;99.90;;;;;;4970608;28;20484;-85
2022/11/08 00:24:06;;;;;;;14.25;3.60;;;12.50;99.90;;;;;;4961001;28;20045;-85
2022/11/08 00:26:32;;;;;;;15.48;3.50;;;12.50;99.90;;;;;;4961005;28;20120;-85
2022/11/08 00:28:58;;;;;;;13.77;3.35;;;12.50;99.90;;;;;;4991902;28;20077;-85
2022/11/08 00:31:24;;;;;;;11.30;3.10;;;12.50;99.90;;;;;;4986327;28;20054;-85
2022/11/08 00:33:49;;;;;;;17.13;4.00;;;12.60;99.90;;;;;;4979433;28;20698;-85
2022/11/08 00:36:15;;;;;;;16.88;3.10;;;12.60;99.90;;;;;;4992202;28;20135;-85
2022/11/08 00:38:42;;;;;;;16.55;3.47;;;12.60;99.90;;;;;;4980425;28;20037;-85
2022/11/08 00:41:09;;;;;;;14.90;3.47;;;12.60;99.90;;;;;;4977783;28;20045;-85
2022/11/08 00:43:34;;;;;;;13.10;3.38;;;12.60;99.90;;;;;;4974497;28;20037;-85
2022/11/08 00:46:00;;;;;;;13.55;3.40;;;12.60;99.90;;;;;;4959553;28;20107;-85
2022/11/08 00:48:26;;;;;;;14.30;3.50;;;12.60;99.90;;;;;;4971128;28;20048;-85
2022/11/08 00:50:51;;;;;;;14.32;3.30;;;12.60;99.90;;;;;;4988890;28;20074;-85
2022/11/08 00:53:17;;;;;;;14.50;3.50;;;12.60;99.90;;;;;;4980312;28;20053;-85
2022/11/08 00:55:43;;;;;;;11.82;3.22;;;12.60;99.90;;;;;;4955011;28;20038;-85
2022/11/08 00:58:08;;;;;;;13.70;3.65;;;12.60;99.90;;;;;;4989868;28;20092;-84
2022/11/08 01:00:34;;;;;;;14.80;3.20;;;12.50;99.90;;;;;;4973767;28;20035;-85
2022/11/08 01:03:18;;;;;;;13.82;3.92;;;12.60;99.90;;;;;;4993569;28;20042;-84
2022/11/08 01:05:45;;;;;;;13.63;3.15;;;12.60;99.90;;;;;;4977596;28;20037;-85
2022/11/08 01:08:11;;;;;;;14.52;3.50;;;12.50;99.90;;;;;;4990379;28;20045;-85
2022/11/08 01:10:41;;;;;;;16.45;3.40;;;12.50;99.90;;;;;;4974869;28;20755;-85
2022/11/08 01:13:06;;;;;;;14.15;3.58;;;12.50;99.90;;;;;;4971470;28;20092;-85
2022/11/08 01:15:37;;;;;;;11.65;3.17;;;12.50;99.90;;;;;;4992359;28;20038;-85
2022/11/08 01:18:03;;;;;;;13.77;3.50;;;12.50;99.90;;;;;;4988769;28;20104;-85
2022/11/08 01:20:29;;;;;;;11.85;2.83;;;12.50;99.90;;;;;;5005139;28;20041;-85
2022/11/08 01:22:55;;;;;;;14.20;3.28;;;12.50;99.90;;;;;;4984409;28;20036;-85
2022/11/08 01:25:20;;;;;;;18.40;3.53;;;12.50;99.90;;;;;;4964792;28;20095;-85
2022/11/08 01:27:46;;;;;;;11.45;2.70;;;12.50;99.90;;;;;;4973907;28;20103;-85
2022/11/08 01:30:12;;;;;;;14.65;3.25;;;12.60;99.90;;;;;;4989059;28;20455;-85
2022/11/08 01:32:37;;;;;;;12.73;3.25;;;12.50;99.90;;;;;;4978868;28;20046;-85
2022/11/08 01:35:03;;;;;;;13.15;3.00;;;12.40;99.90;;;;;;4963960;28;20037;-85
2022/11/08 01:37:29;;;;;;;13.25;2.75;;;12.40;99.90;;;;;;4998114;28;20399;-85
2022/11/08 01:39:55;;;;;;;13.18;3.05;;;12.30;99.90;;;;;;4970296;28;20070;-85
2022/11/08 01:42:31;;;;;;;13.00;3.25;;;12.30;99.90;;;;;;4984448;28;20038;-85
2022/11/08 01:45:01;;;;;;;12.35;3.08;;;12.30;99.90;;;;;;5012279;28;20116;-85
2022/11/08 01:47:27;;;;;;;13.93;3.20;;;12.20;99.90;;;;;;4989727;28;20489;-85
2022/11/08 01:50:06;;;;;;;12.90;3.05;;;12.20;99.90;;;;;;4979005;28;20045;-85
2022/11/08 01:52:36;;;;;;;12.48;3.13;;;12.20;99.90;;;;;;5011901;28;20038;-85
2022/11/08 01:55:16;;;;;;;15.73;3.10;;;12.20;99.90;;;;;;4985330;28;20100;-84
2022/11/08 01:57:51;;;;;;;15.20;3.35;;;12.20;99.90;;;;;;4991468;28;20450;-85
2022/11/08 02:00:17;;;;;;;13.02;3.00;;;12.20;99.90;;;;;;4988562;28;20060;-85
2022/11/08 02:02:48;;;;;;;14.43;3.13;;;12.20;99.90;;;;;;5005352;28;20052;-85
2022/11/08 02:05:25;;;;;;;13.13;2.92;;;12.20;99.90;;;;;;5006161;28;20041;-85
2022/11/08 02:07:57;;;;;;;14.95;3.15;;;12.20;99.90;;;;;;4997331;28;20410;-85
2022/11/08 02:10:28;;;;;;;12.38;2.90;;;12.20;99.90;;;;;;4999684;28;20564;-85
2022/11/08 02:12:54;;;;;;;10.80;2.83;;;12.20;99.90;;;;;;5005825;28;20543;-85
2022/11/08 02:15:23;;;;;;;11.20;2.95;;;12.20;99.90;;;;;;4982846;28;20041;-85
2022/11/08 02:17:49;;;;;;;12.68;2.83;;;12.30;99.90;;;;;;4988947;28;20070;-85
2022/11/08 02:20:15;;;;;;;14.05;3.28;;;12.10;99.90;;;;;;4989480;28;20065;-85
2022/11/08 02:22:49;;;;;;;15.25;3.05;;;12.10;99.90;;;;;;4973322;28;20034;-85
2022/11/08 02:25:14;;;;;;;16.60;3.22;;;12.10;99.90;;;;;;5006599;28;20410;-85
2022/11/08 02:27:40;;;;;;;14.15;3.22;;;12.10;99.90;;;;;;4972778;28;20045;-85
2022/11/08 02:30:06;;;;;;;14.43;3.25;;;12.10;99.90;;;;;;5005718;28;20115;-85
2022/11/08 02:32:40;;;;;;;11.52;2.78;;;12.00;99.90;;;;;;4973443;28;20116;-85
2022/11/08 02:35:10;;;;;;;11.65;2.90;;;12.00;99.90;;;;;;4987717;28;20045;-84
2022/11/08 02:37:36;;;;;;;13.77;3.20;;;12.00;99.90;;;;;;4986405;28;20121;-85
2022/11/08 02:40:03;;;;;;;13.60;2.85;;;11.90;99.90;;;;;;4962250;28;20133;-85
2022/11/08 02:42:28;;;;;;;16.20;3.35;;;11.90;99.90;;;;;;4998842;28;20056;-85
2022/11/08 02:44:54;;;;;;;10.50;2.80;;;11.90;99.90;;;;;;5006020;28;20988;-85
2022/11/08 02:47:20;;;;;;;11.73;2.92;;;11.90;99.90;;;;;;5006517;28;20566;-85
2022/11/08 02:49:45;;;;;;;12.00;2.78;;;11.80;99.90;;;;;;4974315;28;20680;-85
2022/11/08 02:52:11;;;;;;;13.50;3.00;;;12.00;99.90;;;;;;4986468;28;20042;-86
2022/11/08 02:54:37;;;;;;;11.55;2.70;;;11.80;99.90;;;;;;4998446;28;20064;-86
2022/11/08 02:57:03;;;;;;;12.57;2.88;;;11.80;99.90;;;;;;4988509;28;20529;-86
2022/11/08 02:59:29;;;;;;;12.60;3.13;;;11.80;99.90;;;;;;4972105;28;20427;-85
2022/11/08 03:01:54;;;;;;;13.40;3.30;;;11.90;99.90;;;;;;4989020;28;20328;-86
2022/11/08 03:04:20;;;;;;;15.57;2.97;;;11.70;99.90;;;;;;4971344;28;20080;-85
2022/11/08 03:06:46;;;;;;;10.38;2.70;;;11.70;99.90;;;;;;4969205;28;20506;-86
2022/11/08 03:09:11;;;;;;;12.60;2.95;;;11.70;99.90;;;;;;4988487;28;20057;-86
2022/11/08 03:11:37;;;;;;;12.77;2.90;;;11.70;99.90;;;;;;4973148;28;20414;-86
2022/11/08 03:14:03;;;;;;;16.13;3.17;;;11.70;99.90;;;;;;4971841;28;20113;-86
2022/11/08 03:16:29;;;;;;;10.40;2.97;;;11.60;99.90;;;;;;4968569;28;20037;-85
2022/11/08 03:18:54;;;;;;;12.68;3.17;;;11.60;99.90;;;;;;4971742;28;20195;-86
2022/11/08 03:21:20;;;;;;;10.82;2.67;;;11.60;99.90;;;;;;4993884;28;20174;-86
2022/11/08 03:23:46;;;;;;;10.68;2.85;;;11.60;99.90;;;;;;4968093;28;20035;-86
2022/11/08 03:26:11;;;;;;;11.93;2.78;;;11.60;99.90;;;;;;4988891;28;20033;-86
2022/11/08 03:28:37;;;;;;;13.07;3.08;;;11.60;99.90;;;;;;4965078;28;20129;-85
2022/11/08 03:31:03;;;;;;;13.55;2.78;;;11.60;99.90;;;;;;4991035;28;20084;-85
2022/11/08 03:33:28;;;;;;;14.75;3.20;;;11.50;99.90;;;;;;4962205;28;20041;-85
2022/11/08 03:35:54;;;;;;;13.82;2.92;;;11.50;99.90;;;;;;4976172;28;20042;-85
2022/11/08 03:38:20;;;;;;;11.88;3.10;;;11.50;99.90;;;;;;4974645;28;20046;-85
2022/11/08 03:40:46;;;;;;;13.75;3.30;;;11.50;99.90;;;;;;4976501;28;20088;-85
2022/11/08 03:43:13;;;;;;;10.95;2.90;;;11.40;99.90;;;;;;4990977;28;20069;-85
2022/11/08 03:45:38;;;;;;;12.77;2.78;;;11.50;99.90;;;;;;4988555;28;20038;-86
2022/11/08 03:48:04;;;;;;;14.43;2.85;;;11.40;99.90;;;;;;4991074;28;20044;-86
2022/11/08 03:50:30;;;;;;;15.35;2.97;;;11.40;99.90;;;;;;4977924;28;20466;-85
2022/11/08 03:52:56;;;;;;;12.07;3.28;;;11.40;99.90;;;;;;5014278;28;20078;-85
2022/11/08 03:55:24;;;;;;;11.82;2.78;;;11.40;99.90;;;;;;5001183;28;20125;-85
2022/11/08 03:57:51;;;;;;;12.30;3.03;;;11.40;99.90;;;;;;4989599;28;20117;-85
2022/11/08 04:00:23;;;;;;;11.70;3.00;;;11.40;99.90;;;;;;4987271;28;20077;-86
2022/11/08 04:02:49;;;;;;;10.52;2.72;;;11.40;99.90;;;;;;4993020;28;20411;-85
2022/11/08 04:05:15;;;;;;;12.35;3.25;;;11.40;99.90;;;;;;4973229;28;20038;-85
2022/11/08 04:07:42;;;;;;;12.55;2.88;;;11.40;99.90;;;;;;4965499;28;20454;-85
2022/11/08 04:10:09;;;;;;;10.77;3.45;;;11.60;99.90;;;;;;4990721;28;20045;-85
2022/11/08 04:15:22;;;;;;;13.98;3.30;;;11.40;99.90;;;;;;5005853;28;20564;-85
2022/11/08 04:23:25;;;;;;;11.07;2.70;;;11.30;99.90;;;;;;5006396;28;20491;-85
2022/11/08 04:25:56;;;;;;;10.07;2.90;;;11.30;99.90;;;;;;5005251;28;20053;-86
2022/11/08 04:28:30;;;;;;;12.90;3.00;;;11.30;99.90;;;;;;5008685;28;20041;-85
2022/11/08 04:30:58;;;;;;;15.55;2.88;;;11.20;99.90;;;;;;4978222;28;20038;-85
2022/11/08 04:33:24;;;;;;;10.45;2.67;;;11.20;99.90;;;;;;4992329;28;20034;-85
2022/11/08 04:35:51;;;;;;;12.25;3.15;;;11.20;99.90;;;;;;4973080;28;20696;-85
2022/11/08 04:38:17;;;;;;;10.93;2.72;;;11.20;99.90;;;;;;4974135;28;20053;-84
2022/11/08 04:40:43;;;;;;;12.35;2.70;;;11.20;99.90;;;;;;5007858;28;20037;-85
2022/11/08 04:43:10;;;;;;;15.93;3.58;;;11.10;99.90;;;;;;4982052;28;20034;-85
2022/11/08 04:45:35;;;;;;;13.25;2.75;;;11.20;99.90;;;;;;5009136;28;20069;-85
2022/11/08 04:48:01;;;;;;;12.00;2.70;;;11.20;99.90;;;;;;5006825;28;20077;-85
2022/11/08 04:50:27;;;;;;;13.25;2.95;;;11.10;99.90;;;;;;4992431;28;20052;-85
2022/11/08 04:52:54;;;;;;;11.52;3.08;;;11.20;99.90;;;;;;4983494;28;20423;-85
2022/11/08 04:55:21;;;;;;;12.50;3.10;;;11.20;99.90;;;;;;4975406;28;20038;-86
2022/11/08 04:57:47;;;;;;;11.30;2.80;;;11.20;99.90;;;;;;4989460;28;20044;-86
2022/11/08 05:00:14;;;;;;;12.40;3.08;;;11.20;99.90;;;;;;5005485;28;20388;-86
2022/11/08 05:02:39;;;;;;;13.13;2.67;;;11.30;99.90;;;;;;4991403;28;20092;-86
2022/11/08 05:05:06;;;;;;;12.00;2.80;;;11.30;99.90;;;;;;4981128;28;20058;-86
2022/11/08 05:07:32;;;;;;;10.10;2.72;;;11.30;99.90;;;;;;4984833;28;20041;-85
2022/11/08 05:09:57;;;;;;;11.60;3.03;;;11.30;99.90;;;;;;4957732;28;20103;-85
2022/11/08 05:12:23;;;;;;;10.10;2.80;;;11.30;99.90;;;;;;4977197;28;20106;-85
2022/11/08 05:14:49;;;;;;;15.35;2.75;;;11.30;99.90;;;;;;4976506;28;20034;-85
2022/11/08 05:17:15;;;;;;;10.77;2.58;;;11.30;99.90;;;;;;4979869;28;20145;-85
2022/11/08 05:25:09;;;;;;;13.73;2.92;;;11.30;99.90;;;;;;4983161;28;20054;-85
2022/11/08 05:27:35;;;;;;;10.70;2.70;;;11.20;99.90;;;;;;5006427;28;20587;-85
2022/11/08 05:30:01;;;;;;;10.40;2.65;;;11.20;99.90;;;;;;4992112;28;20073;-86
2022/11/08 05:32:27;;;;;;;9.75;2.55;;;11.20;99.90;;;;;;5008232;28;20045;-86
2022/11/08 05:34:52;;;;;;;8.18;2.90;;;11.20;99.90;;;;;;4976199;28;20116;-85
2022/11/08 05:37:18;;;;;;;12.30;2.80;;;11.10;99.90;;;;;;4959749;28;20045;-85
2022/11/08 05:39:44;;;;;;;11.55;2.80;;;11.10;99.90;;;;;;4952855;28;20042;-85
2022/11/08 05:42:09;;;;;;;10.68;2.72;;;11.10;99.90;;;;;;4973542;28;20120;-85
2022/11/08 05:44:35;;;;;;;13.85;2.70;;;11.10;99.90;;;;;;4971872;28;20459;-86
2022/11/08 05:47:01;;;;;;;12.63;3.05;;;11.00;99.90;;;;;;4985606;28;20046;-86
2022/11/08 05:49:26;;;;;;;11.48;2.45;;;11.00;99.90;;;;;;4971414;28;20049;-86
2022/11/08 05:51:52;;;;;;;11.70;3.00;;;11.00;99.90;;;;;;4961840;28;20042;-85
2022/11/08 05:54:18;;;;;;;10.90;2.70;;;11.00;99.90;;;;;;4990937;28;20486;-85
2022/11/08 05:56:43;;;;;;;10.75;2.58;;;10.90;99.90;;;;;;4971846;28;20068;-85
2022/11/08 05:59:09;;;;;;;11.23;2.78;;;10.90;99.90;;;;;;4973099;28;20068;-85
2022/11/08 06:01:35;;;;;;;10.02;2.58;;;10.80;99.90;;;;;;4991615;28;20037;-85
2022/11/08 06:04:01;;;;;;;12.57;2.72;;;10.90;99.90;;;;;;5014200;28;20053;-86
2022/11/08 06:06:26;;;;;;;12.43;3.00;;;10.80;99.90;;;;;;4974216;28;20041;-86
2022/11/08 06:08:53;;;;;;;11.50;2.67;;;10.70;99.90;;;;;;4968296;28;20439;-85
2022/11/08 06:11:21;;;;;;;12.18;2.95;;;10.70;99.90;;;;;;4969635;28;20125;-85
2022/11/08 06:13:47;;;;;;;10.73;2.85;;;10.70;99.90;;;;;;4987817;28;20520;-85
2022/11/08 06:16:15;;;;;;;10.10;2.60;;;9.80;99.90;;;;;;5004078;28;20133;-85
2022/11/08 06:18:41;;;;;;;9.35;2.70;;;10.60;99.90;;;;;;4984771;28;20148;-86
2022/11/08 06:21:10;;;;;;;11.50;2.72;;;10.60;99.90;;;;;;4957339;28;20042;-86
2022/11/08 06:23:36;;;;;;;9.15;2.60;;;10.90;99.90;;;;;;5008446;28;20038;-85
2022/11/08 06:26:03;;;;;;;12.20;2.72;;;10.60;99.90;;;;;;4984581;28;20115;-85
2022/11/08 06:28:29;;;;;;;11.60;2.78;;;9.90;99.90;;;;;;4988463;28;20041;-86
2022/11/08 06:30:58;;;;;;;11.93;2.65;;;10.60;99.90;;;;;;4988597;28;20483;-85
2022/11/08 06:33:24;;;;;;;9.35;2.53;;;10.80;99.90;;;;;;4990668;28;20056;-85
2022/11/08 06:35:50;;;;;;;10.57;2.80;;;10.60;99.90;;;;;;4994943;28;20042;-86
2022/11/08 06:38:16;;;;;;;11.73;2.90;;;10.60;99.90;;;;;;4990938;28;20041;-86
2022/11/08 06:40:42;;;;;;;11.57;2.88;;;10.60;99.90;;;;;;4992160;28;20483;-86
2022/11/08 06:43:10;;;;;;;10.57;2.85;;;10.90;99.90;;;;;;4976103;28;20096;-86
2022/11/08 06:45:36;;;;;;;11.77;2.83;;;10.70;99.90;;;;;;5007978;28;20034;-86
2022/11/08 06:48:03;;;;;;;10.55;3.00;;;10.70;99.90;;;;;;4990837;28;20145;-86
2022/11/08 06:50:30;;;;;;;12.52;2.80;;;10.60;99.90;;;;;;5007975;28;20510;-86
2022/11/08 06:53:03;;;;;;;13.85;3.20;;;10.70;99.90;;;;;;4988531;28;20373;-86
2022/11/08 06:55:29;;;;;;;10.27;3.28;;;10.70;99.90;;;;;;4973960;28;20134;-86
2022/11/08 06:57:55;;;;;;;10.15;2.92;;;10.70;99.90;;;;;;4991300;28;20120;-86
2022/11/08 07:00:21;;;;;;;11.98;2.97;;;10.60;99.90;;;;;;4972556;28;20061;-86
2022/11/08 07:02:55;;;;;;;10.00;2.95;;;10.70;99.90;;;;;;4981899;28;20108;-86
2022/11/08 07:05:21;;;;;;;10.75;2.95;;;10.70;99.90;;;;;;4991692;28;20046;-86
2022/11/08 07:07:52;;;;;;;8.38;2.88;;;10.70;99.90;;;;;;4998459;28;20057;-86
2022/11/08 07:10:20;;;;;;;10.63;3.03;;;10.70;99.90;;;;;;4977528;28;20069;-86
2022/11/08 07:12:46;;;;;;;10.82;2.92;;;10.70;99.90;;;;;;5001616;28;20049;-85
2022/11/08 07:15:13;;;;;;;9.23;3.20;;;10.70;99.90;;;;;;5013232;28;20280;-86
2022/11/08 07:17:39;;;;;;;11.77;3.25;;;;;;;;;;5008534;28;20057;-85
2022/11/08 07:20:06;;;;;;;14.15;3.50;;;10.70;99.90;;;;;;4978046;28;20046;-85
2022/11/08 07:22:31;;;;;;;11.98;3.25;;;10.70;99.90;;;;;;4993799;28;20107;-85
2022/11/08 07:24:57;;;;;;;10.63;3.30;;;10.70;99.90;;;;;;4995493;28;20041;-84
2022/11/08 07:27:23;;;;;;;13.68;3.50;;;10.70;99.90;;;;;;4998494;28;20490;-85
2022/11/08 07:29:48;;;;;;;12.02;3.80;;;10.70;99.90;;;;;;4973441;28;20133;-87
2022/11/08 07:32:14;;;;;;;12.02;3.65;;;10.70;99.90;;;;;;4978339;28;20040;-85
2022/11/08 07:34:40;;;;;;;12.13;3.13;;;10.70;99.90;;;;;;4974752;28;20507;-85
2022/11/08 07:37:05;;;;;;;11.77;3.20;;;10.80;99.90;;;;;;4977418;28;20038;-86
2022/11/08 07:39:31;;;;;;;11.05;3.45;;;11.40;99.90;;;;;;4974723;28;20035;-86
2022/11/08 07:41:57;;;;;;;10.55;3.55;;;10.80;99.90;;;;;;4958328;28;20052;-87
2022/11/08 07:44:22;;;;;;;10.15;3.28;;;10.80;99.90;;;;;;4989417;28;20045;-86
2022/11/08 07:46:48;;;;;;;11.05;3.20;;;10.90;99.90;;;;;;4979275;28;20034;-85
2022/11/08 07:49:14;;;;;;;10.15;3.33;;;10.90;99.90;;;;;;4993410;28;20510;-86
2022/11/08 07:51:40;;;;;;;10.05;3.28;;;10.90;99.90;;;;;;4978630;28;20046;-87
2022/11/08 07:54:05;;;;;;;11.10;3.53;;;11.00;99.90;;;;;;4994019;28;20037;-85
2022/11/08 07:56:31;;;;;;;10.43;3.00;;;11.00;99.90;;;;;;4993920;28;20038;-85
2022/11/08 07:58:57;;;;;;;11.82;3.22;;;11.00;99.90;;;;;;4992265;28;20050;-88
2022/11/08 08:01:22;;;;;;;11.82;3.05;;;11.10;99.90;;;;;;4977860;28;20092;-86
2022/11/08 08:03:48;;;;;;;10.52;3.28;;;11.10;99.90;;;;;;4965279;28;20084;-85
2022/11/08 08:06:14;;;;;;;10.52;2.97;;;11.10;99.90;;;;;;4977424;28;20041;-86
2022/11/08 08:08:39;;;;;;;10.25;2.72;;;11.20;99.90;;;;;;4973917;28;20110;-87
2022/11/08 08:11:05;;;;;;;11.13;3.10;;;11.20;99.90;;;;;;4956205;28;20052;-88
2022/11/08 08:13:31;;;;;;;8.13;2.63;;;11.30;99.90;;;;;;4977717;28;20525;-86
2022/11/08 08:15:59;;;;;;;11.15;2.80;;;11.30;99.90;;;;;;4989819;28;20040;-85
2022/11/08 08:18:25;;;;;;;8.90;2.75;;;11.40;99.90;;;;;;4974651;28;20053;-87
2022/11/08 08:20:51;;;;;;;10.32;2.70;;;11.40;99.90;;;;;;4984628;28;20030;-86
2022/11/08 08:23:17;;;;;;;9.45;2.42;;;11.40;99.90;;;;;;4993784;28;20044;-86
2022/11/08 08:25:42;;;;;;;7.63;2.25;;;11.50;99.90;;;;;;4993653;28;20037;-86
2022/11/08 08:28:11;;;;;;;9.05;2.72;;;11.60;99.90;;;;;;4984609;28;20042;-89
2022/11/08 08:30:37;;;;;;;9.43;2.65;;;11.20;99.90;;;;;;5005449;28;20046;-87
2022/11/08 08:33:12;;;;;;;7.00;2.08;;;11.70;99.90;;;;;;4983646;28;20049;-88
2022/11/08 08:35:39;;;;;;;8.40;2.45;;;11.70;99.90;;;;;;4977320;28;20180;-86
2022/11/08 08:38:05;;;;;;;9.35;2.47;;;11.70;99.90;;;;;;4972819;28;20038;-86
2022/11/08 08:40:32;;;;;;;8.10;2.45;;;11.70;99.90;;;;;;4981778;28;20070;-85
2022/11/08 08:42:58;;;;;;;7.90;2.05;;;11.70;99.90;;;;;;4993723;28;20053;-89
2022/11/08 08:45:25;;;;;;;10.60;2.60;;;11.80;99.90;;;;;;4985332;28;20041;-85
2022/11/08 08:47:53;;;;;;;9.77;2.53;;;11.80;99.90;;;;;;4975902;28;20049;-86
2022/11/08 08:50:18;;;;;;;10.50;2.70;;;11.90;99.90;;;;;;4984495;28;20080;-86
2022/11/08 08:52:44;;;;;;;8.00;2.50;;;12.30;99.90;;;;;;4969770;28;20088;-87
2022/11/08 08:55:10;;;;;;;7.97;2.40;;;12.00;99.90;;;;;;4981376;28;20124;-85
2022/11/08 08:57:35;;;;;;;8.23;2.17;;;12.10;99.90;;;;;;4977399;28;20046;-86
2022/11/08 09:00:02;;;;;;;9.18;2.30;;;12.10;99.90;;;;;;4973366;28;20046;-85
2022/11/08 09:02:28;;;;;;;9.70;2.67;;;12.20;99.90;;;;;;5002716;28;20077;-86
2022/11/08 09:04:54;;;;;;;8.13;2.28;;;12.20;99.90;;;;;;4974260;28;20089;-86
2022/11/08 09:07:20;;;;;;;9.38;2.42;;;12.20;99.90;;;;;;4975730;28;20057;-87
2022/11/08 09:09:45;;;;;;;9.20;2.40;;;12.20;99.90;;;;;;4973110;28;20538;-87
2022/11/08 09:12:11;;;;;;;8.73;2.03;;;12.30;99.90;;;;;;4975963;28;20042;-86
2022/11/08 09:14:37;;;;;;;9.00;2.45;;;12.40;99.90;;;;;;4978360;28;20132;-87
2022/11/08 09:17:02;;;;;;;8.23;2.50;;;12.40;99.90;;;;;;4991704;28;20056;-86
2022/11/08 09:19:28;;;;;;;9.02;2.20;;;12.50;99.90;;;;;;5013253;28;20042;-86
2022/11/08 09:21:54;;;;;;;9.80;2.50;;;12.60;99.90;;;;;;4984151;28;20042;-87
2022/11/08 09:24:19;;;;;;;7.80;2.30;;;12.70;99.90;;;;;;4958977;28;20037;-86
2022/11/08 09:26:45;;;;;;;8.80;2.65;;;12.70;99.90;;;;;;4956710;28;20042;-85
2022/11/08 09:29:11;;;;;;;8.20;2.05;;;12.70;99.90;;;;;;4974971;28;20400;-86
2022/11/08 09:31:36;;;;;;;7.47;2.30;;;12.80;99.90;;;;;;4990356;28;20113;-87
2022/11/08 09:34:02;;;;;;;7.93;2.13;;;12.80;99.90;;;;;;4968771;28;20038;-87
2022/11/08 09:36:28;;;;;;;6.90;2.20;;;12.90;99.90;;;;;;4980216;28;20041;-85
2022/11/08 09:38:54;;;;;;;9.55;2.50;;;13.00;99.90;;;;;;4988511;28;20650;-85
2022/11/08 09:41:19;;;;;;;9.25;2.45;;;13.10;99.90;;;;;;4959351;28;20292;-85
2022/11/08 09:43:58;;;;;;;6.95;2.10;;;13.10;99.90;;;;;;4989835;28;20527;-85
2022/11/08 09:46:37;;;;;;;7.30;2.10;;;13.20;99.90;;;;;;4977807;28;20514;-87
2022/11/08 09:49:09;;;;;;;8.90;2.30;;;13.30;99.90;;;;;;5002563;28;20176;-85
2022/11/08 09:51:35;;;;;;;9.93;2.38;;;13.30;99.90;;;;;;4988356;28;20112;-86
2022/11/08 09:54:05;;;;;;;7.32;1.98;;;13.30;99.90;;;;;;4967323;28;20124;-86
2022/11/08 09:56:35;;;;;;;8.32;2.60;;;13.40;99.90;;;;;;4989645;28;20414;-86
2022/11/08 09:59:29;;;;;;;7.63;2.10;;;13.40;99.90;;;;;;5006801;28;20581;-85
2022/11/08 10:01:55;;;;;;;9.98;2.55;;;13.50;99.90;;;;;;4985068;28;20450;-88
2022/11/08 10:04:24;;;;;;;7.35;1.95;;;13.50;99.90;;;;;;4969086;28;20081;-87
2022/11/08 10:06:59;;;;;;;8.55;2.45;;;13.60;99.90;;;;;;4982122;28;20103;-88
2022/11/08 10:09:30;;;;;;;7.82;2.08;;;13.60;99.90;;;;;;5001751;28;20069;-88
2022/11/08 10:12:29;;;;;;;7.28;2.42;;;13.70;99.90;;;;;;4986165;28;20035;-86
2022/11/08 10:15:28;;;;;;;5.53;2.05;;;13.70;99.90;;;;;;4983999;28;20391;-86
2022/11/08 10:18:17;;;;;;;9.23;2.40;;;13.70;99.90;;;;;;4987945;28;20034;-86
2022/11/08 10:21:23;;;;;;;7.68;1.98;;;13.70;99.90;;;;;;4985586;28;20045;-87
2022/11/08 10:23:55;;;;;;;5.95;2.00;;;13.80;99.90;;;;;;4986486;28;20037;-87
2022/11/08 10:26:29;;;;;;;7.97;2.20;;;13.70;99.90;;;;;;4998907;28;20801;-86
2022/11/08 10:29:05;;;;;;;7.32;2.13;;;13.80;99.90;;;;;;4984278;28;20049;-85
2022/11/08 10:31:34;;;;;;;8.35;2.10;;;13.80;99.90;;;;;;4984539;28;20101;-86
2022/11/08 10:34:08;;;;;;;9.35;2.35;;;13.70;99.90;;;;;;4970834;28;20038;-86
2022/11/08 10:36:59;;;;;;;8.25;2.28;;;13.70;99.90;;;;;;4982702;28;20045;-85
2022/11/08 10:39:33;;;;;;;9.60;2.40;;;13.80;99.90;;;;;;4997907;28;20050;-86
2022/11/08 10:42:10;;;;;;;8.02;2.30;;;13.70;99.90;;;;;;4975154;28;20052;-87
2022/11/08 10:44:37;;;;;;;7.60;2.00;;;13.80;99.90;;;;;;4983712;28;20034;-88
2022/11/08 10:47:06;;;;;;;7.10;2.10;;;13.70;99.90;;;;;;4968526;28;20092;-87
2022/11/08 10:49:40;;;;;;;6.53;2.20;;;14.90;99.90;;;;;;4998519;28;20034;-86
2022/11/08 10:52:35;;;;;;;7.75;2.45;;;13.70;99.90;;;;;;4997856;28;20037;-86
2022/11/08 10:55:06;;;;;;;7.75;2.20;;;13.70;99.90;;;;;;4978739;28;20121;-87
2022/11/08 10:57:31;;;;;;;9.48;2.20;;;13.60;99.90;;;;;;4998154;28;20038;-87
2022/11/08 11:00:18;;;;;;;8.65;2.53;;;13.60;99.90;;;;;;4998357;28;20058;-87
2022/11/08 11:02:48;;;;;;;8.60;2.35;;;13.60;99.90;;;;;;4985270;28;20049;-86
2022/11/08 11:05:25;;;;;;;9.00;2.50;;;13.60;99.90;;;;;;4983069;28;20038;-88
2022/11/08 11:08:00;;;;;;;7.65;2.53;;;13.60;99.90;;;;;;4996303;28;20069;-88
2022/11/08 11:10:31;;;;;;;7.50;2.28;;;13.60;99.90;;;;;;4992043;28;20042;-87
2022/11/08 11:13:01;;;;;;;7.45;2.42;;;13.60;99.90;;;;;;4980577;28;20045;-86
2022/11/08 11:15:50;;;;;;;8.07;2.45;;;13.60;99.90;;;;;;4979576;28;20050;-87
2022/11/08 11:18:34;;;;;;;6.97;2.40;;;13.60;99.90;;;;;;4985472;28;20069;-86
2022/11/08 11:21:11;;;;;;;8.93;2.28;;;13.60;99.90;;;;;;4983136;28;20038;-87
2022/11/08 11:23:43;;;;;;;7.00;2.17;;;13.60;99.90;;;;;;4991844;28;20038;-87
2022/11/08 11:26:31;;;;;;;9.07;2.70;;;13.60;99.90;;;;;;4977165;28;20046;-88
2022/11/08 11:29:05;;;;;;;8.68;2.42;;;13.70;99.90;;;;;;4997089;28;20123;-87
2022/11/08 11:31:37;;;;;;;7.45;2.20;;;13.70;99.90;;;;;;4999189;28;20042;-85
2022/11/08 11:34:17;;;;;;;5.45;1.90;;;13.70;99.90;;;;;;4981252;28;20084;-87
2022/11/08 11:37:00;;;;;;;8.18;2.10;;;13.80;99.90;;;;;;4989999;28;20121;-89
2022/11/08 11:39:55;;;;;;;6.75;2.05;;;13.80;99.90;;;;;;4980886;28;20474;-87
2022/11/08 11:42:30;;;;;;;6.30;2.00;;;13.90;99.90;;;;;;4993881;28;20037;-89
2022/11/08 11:45:08;;;;;;;6.65;2.30;;;14.00;99.90;;;;;;4984135;28;20172;-87
2022/11/08 11:47:49;;;;;;;7.28;2.28;;;14.00;99.90;;;;;;4986411;28;20109;-87
2022/11/08 11:50:20;;;;;;;9.25;2.03;;;14.10;99.90;;;;;;4978719;28;20107;-86
2022/11/08 11:52:46;;;;;;;8.13;2.00;;;14.10;99.90;;;;;;4984995;28;20052;-87
2022/11/08 11:55:15;;;;;;;8.30;2.10;;;14.10;99.90;;;;;;4969450;28;20045;-87
2022/11/08 11:58:08;;;;;;;7.53;2.13;;;14.10;99.90;;;;;;4998683;28;20035;-87
2022/11/08 12:00:42;;;;;;;10.73;2.00;;;14.10;99.90;;;;;;4967929;28;20095;-87
2022/11/08 12:03:17;;;;;;;6.85;2.10;;;14.10;99.90;;;;;;4991003;28;20049;-88
2022/11/08 12:06:10;;;;;;;6.75;2.20;;;14.20;99.90;;;;;;4990960;28;20107;-88
2022/11/08 12:08:50;;;;;;;;;;;14.20;99.90;;;;;;4991582;28;20045;-89
2022/11/08 12:11:32;;;;;;;7.90;2.08;;;14.20;99.90;;;;;;4989111;28;19923;-87
2022/11/08 12:14:01;;;;;;;7.18;2.15;;;14.20;99.90;;;;;;5003637;28;20112;-87
2022/11/08 12:16:51;;;;;;;6.13;1.95;;;14.30;99.90;;;;;;4992859;28;20406;-85
2022/11/08 12:19:37;;;;;;;7.57;2.17;;;14.40;99.90;;;;;;4992795;28;20042;-84
2022/11/08 12:22:24;;;;;;;6.72;2.10;;;14.50;99.90;;;;;;4994358;28;20402;-84
2022/11/08 12:24:56;;;;;;;8.00;2.10;;;14.70;99.90;;;;;;4990039;28;20038;-88
2022/11/08 12:27:37;;;;;;;6.10;1.90;;;14.70;99.90;;;;;;4982572;28;20502;-87
2022/11/08 12:30:03;;;;;;;5.97;2.10;;;14.80;99.90;;;;;;4993898;28;20041;-87
2022/11/08 12:32:34;;;;;;;8.15;2.03;;;14.80;99.90;;;;;;4994246;28;20057;-87
2022/11/08 12:35:25;;;;;;;9.13;2.10;;;14.70;99.90;;;;;;5010781;28;20402;-87
2022/11/08 12:38:14;;;;;;;7.65;2.00;;;14.70;99.90;;;;;;4992941;28;20096;-87
2022/11/08 12:41:14;;;;;;;6.70;1.90;;;14.00;99.90;;;;;;4988450;28;20053;-87
2022/11/08 12:44:12;;;;;;;6.80;2.30;;;14.60;99.90;;;;;;4986563;28;20078;-87
2022/11/08 12:47:00;;;;;;;7.82;2.20;;;14.60;99.90;;;;;;4979228;28;20092;-88
2022/11/08 12:49:35;;;;;;;8.77;2.13;;;14.60;99.90;;;;;;5005883;28;20073;-88
2022/11/08 12:52:28;;;;;;;6.38;2.00;;;14.70;99.90;;;;;;4992716;28;20117;-88
2022/11/08 12:54:59;;;;;;;7.97;2.10;;;14.70;99.90;;;;;;4993851;28;20049;-87
2022/11/08 12:57:30;;;;;;;7.32;2.17;;;14.80;99.90;;;;;;5009037;28;20037;-87
2022/11/08 13:00:28;;;;;;;6.65;1.88;;;14.80;99.90;;;;;;4991766;28;20062;-86
2022/11/08 13:03:12;;;;;;;10.90;2.22;;;14.80;99.90;;;;;;4959011;28;20033;-87
2022/11/08 13:05:49;;;;;;;7.47;2.08;;;14.90;99.90;;;;;;4992943;28;20483;-87
2022/11/08 13:08:24;;;;;;;8.90;2.25;;;15.00;99.90;;;;;;5007099;28;20053;-86
2022/11/08 13:11:03;;;;;;;6.00;2.03;;;15.00;99.90;;;;;;4991802;28;20038;-87
2022/11/08 13:13:48;;;;;;;7.43;2.15;;;15.10;99.90;;;;;;4991910;28;20034;-87
2022/11/08 13:16:17;;;;;;;7.28;2.03;;;15.20;99.90;;;;;;4967120;28;20120;-90
2022/11/08 13:18:51;;;;;;;6.05;2.03;;;15.20;99.90;;;;;;4992085;28;20041;-87